• Join FlightAware (Why Join?)
  • Login
  • US Flag 
06:01PM EDT


 

Airport Tracker/Info


-or-


 

Live Flight TrackerFlight Track Log ✈ N104HE ✈ 30-Jul-2013 ✈ KHUM - KLAL

Flight Track Log - Related Links

Times and Time Zones

All times are in EDT time to prevent confusion due to time zone crossing. See the N104HE flight status page for this flight to view local times or setup timezone preferences in your user account.

Time Position Orientation Groundspeed Altitude Reporting Facility
EDT Latitude Longitude Course Direction KTS MPH feet Rate Location/Type
12:42PM 29.5856 -90.6186 65° Northeast 112 129 1,800  Level Houston Center
12:43PM 29.5933 -90.5992 65° Northeast 99 114 2,400 720 Climbing Houston Center
12:44PM 29.6050 -90.5700 65° Northeast 102 117 3,100 780 Climbing Houston Center
12:45PM 29.6186 -90.5383 64° Northeast 105 121 4,100 780 Climbing Houston Center
12:46PM 29.6303 -90.5069 67° East 107 123 4,800 720 Climbing Houston Center
12:47PM 29.6461 -90.4753 60° Northeast 104 120 5,600 720 Climbing Houston Center
12:48PM 29.6578 -90.4461 65° Northeast 106 122 6,300 600 Climbing Houston Center
12:49PM 29.6717 -90.4144 63° Northeast 107 123 6,900 600 Climbing Houston Center
12:50PM 29.6853 -90.3853 62° Northeast 105 121 7,600 600 Climbing Houston Center
12:51PM 29.6992 -90.3558 61° Northeast 106 122 8,200 540 Climbing Houston Center
12:52PM 29.7108 -90.3244 67° East 106 122 8,700 360 Climbing Houston Center
12:53PM 29.7264 -90.2925 61° Northeast 107 123 9,000 120 Climbing Houston Center
12:54PM 29.7422 -90.2561 63° Northeast 125 144 9,000  Level Houston Center
12:55PM 29.7556 -90.2219 66° East 115 132 9,000  Level Houston Center
12:56PM 29.7714 -90.1878 62° Northeast 114 131 9,000  Level Houston Center
12:57PM 29.7692 -90.1669 97° East 112 129 9,000  Level Houston Center
12:57PM 29.7869 -90.1514 37° Northeast 118 136 9,000  Level Houston Center
12:58PM 29.7881 -90.1300 87° East 113 130 9,000  Level Houston Center
12:59PM 29.8039 -90.0978 60° Northeast 76 87 9,000  Level Houston Center
01:00PM 29.8194 -90.0544 68° East 121 139 9,000  Level Houston Center
01:01PM 29.8433 -90.0194 52° Northeast 114 131 9,000  Level Houston Center
01:02PM 29.8494 -89.9897 77° East 116 133 9,000  Level Houston Center
01:03PM 29.8625 -89.9589 64° Northeast 112 129 9,000  Level Houston Center
01:04PM 29.8753 -89.9247 67° East 112 129 9,000  Level Houston Center
01:05PM 29.8903 -89.8892 64° Northeast 118 136 9,000  Level Houston Center
01:06PM 29.9061 -89.8478 66° East 119 137 9,000  Level Houston Center
01:08PM 29.9267 -89.8169 52° Northeast 115 132 9,000  Level Houston Center
01:08PM 29.9333 -89.7806 78° East 117 135 9,000  Level Houston Center
01:10PM 29.9464 -89.7461 66° East 117 135 9,000  Level Houston Center
01:11PM 29.9606 -89.7125 64° Northeast 117 135 9,000  Level Houston Center
01:12PM 29.9744 -89.6792 64° Northeast 116 133 9,000  Level Houston Center
01:13PM 29.9906 -89.6378 66° East 117 135 9,000  Level Houston Center
01:14PM 30.0050 -89.6044 63° Northeast 117 135 9,000  Level Houston Center
01:15PM 30.0169 -89.5683 69° East 118 136 9,100  Climbing Houston Center
01:16PM 30.0314 -89.5353 63° Northeast 118 136 9,000 -60 Descending Houston Center
01:17PM 30.0453 -89.5008 65° Northeast 118 136 9,000  Level Houston Center
01:18PM 30.0594 -89.4669 64° Northeast 118 136 9,000  Level Houston Center
01:19PM 30.0750 -89.4281 65° Northeast 114 131 9,000  Level Houston Center
01:20PM 30.0894 -89.3939 64° Northeast 116 133 9,000  Level Houston Center
01:21PM 30.1036 -89.3594 65° Northeast 118 136 9,000  Level Houston Center
01:22PM 30.1164 -89.3233 68° East 119 137 9,000  Level Houston Center
01:23PM 30.1292 -89.2894 66° East 118 136 9,000  Level Houston Center
01:24PM 30.1433 -89.2558 64° Northeast 116 133 9,000  Level Houston Center
01:25PM 30.1611 -89.2144 64° Northeast 119 137 9,000  Level Houston Center
01:26PM 30.1728 -89.1800 69° East 117 135 9,000  Level Houston Center
01:27PM 30.1875 -89.1450 64° Northeast 118 136 9,000  Level Houston Center
01:28PM 30.2022 -89.1097 64° Northeast 120 138 9,000  Level Houston Center
01:29PM 30.2161 -89.0747 65° Northeast 121 139 9,000  Level Houston Center
01:30PM 30.2289 -89.0394 67° East 119 137 9,000  Level Houston Center
01:31PM 30.2428 -89.0039 66° East 121 139 9,000  Level Houston Center
01:32PM 30.2594 -88.9625 65° Northeast 120 138 9,000  Level Houston Center
01:33PM 30.2722 -88.9286 66° East 118 136 9,000  Level Houston Center
01:34PM 30.2864 -88.8942 65° Northeast 118 136 9,100  Climbing Houston Center
01:35PM 30.3000 -88.8594 66° East 118 136 9,000 -60 Descending Houston Center
01:36PM 30.3131 -88.8247 66° East 118 136 9,000  Level Houston Center
01:37PM 30.3244 -88.7900 69° East 116 133 9,100  Climbing Houston Center
01:38PM 30.3236 -88.7428 91° East 117 135 9,100 -60 Level Houston Center
01:39PM 30.3244 -88.7022 89° East 122 140 9,000 -60 Descending Houston Center
01:40PM 30.3253 -88.6631 89° East 123 142 9,000  Level Houston Center
01:41PM 30.3269 -88.6236 87° East 123 142 9,000  Level Houston Center
01:43PM 30.3278 -88.5856 89° East 121 139 9,000  Level Houston Center
01:44PM 30.3292 -88.5481 88° East 120 138 9,000  Level Houston Center
01:45PM 30.3311 -88.5028 87° East 119 137 9,100  Climbing Houston Center
01:46PM 30.3317 -88.4633 89° East 120 138 9,100 -60 Level Houston Center
01:47PM 30.3333 -88.4219 87° East 126 145 9,000 -60 Descending Houston Center
01:48PM 30.3333 -88.3811 90° East 127 146 9,000  Level Houston Center
01:49PM 30.3344 -88.3417 88° East 125 144 9,100  Climbing Houston Center
01:50PM 30.3361 -88.3003 87° East 127 146 9,000 -60 Descending Houston Center
01:51PM 30.3369 -88.2528 89° East 125 144 9,000  Level Houston Center
01:52PM 30.3369 -88.2144 90° East 122 140 9,000  Level Houston Center
01:53PM 30.3386 -88.1747 87° East 123 142 9,000  Level Houston Center
01:54PM 30.3400 -88.1344 88° East 125 144 9,000  Level Houston Center
01:55PM 30.3411 -88.0942 88° East 126 145 9,000  Level Houston Center
01:56PM 30.3417 -88.0544 89° East 124 143 9,100  Climbing Houston Center
01:57PM 30.3422 -88.0053 89° East 127 146 9,000 -60 Descending Houston Center
01:58PM 30.3425 -87.9644 90° East 128 147 9,000  Level Houston Center
01:59PM 30.3442 -87.9228 87° East 129 148 9,000  Level Houston Center
02:00PM 30.3450 -87.8825 89° East 126 145 9,000  Level Houston Center
02:01PM 30.3456 -87.8431 89° East 123 142 9,000  Level Houston Center
02:02PM 30.3472 -87.8019 87° East 126 145 9,100  Climbing Houston Center
02:03PM 30.3481 -87.7553 89° East 120 138 9,000 -60 Descending Houston Center
02:04PM 30.3494 -87.7156 88° East 123 142 9,000  Level Houston Center
02:05PM 30.3494 -87.6767 90° East 120 138 9,000  Level Houston Center
02:06PM 30.3492 -87.6372 90° East 122 140 9,000  Level Houston Center
02:07PM 30.3508 -87.5994 87° East 118 136 9,000  Level Houston Center
02:08PM 30.3514 -87.5606 89° East 120 138 9,000  Level Houston Center
02:09PM 30.3533 -87.5139 87° East 121 139 9,000  Level Houston Center
02:10PM 30.3533 -87.4767 90° East 118 136 9,000  Level Houston Center
02:11PM 30.3542 -87.4389 89° East 115 132 9,000  Level Houston Center
02:13PM 30.3542 -87.3914 90° East 120 138 9,000  Level Jacksonville Center
02:14PM 30.3533 -87.3503 91° East 120 138 9,100  Climbing Jacksonville Center
02:15PM 30.3528 -87.3119 91° East 121 139 9,000 -60 Descending Jacksonville Center
02:16PM 30.3542 -87.2708 88° East 121 139 9,000  Level Jacksonville Center
02:17PM 30.3553 -87.2350 88° East 119 137 9,000  Level Jacksonville Center
02:18PM 30.3567 -87.1989 87° East 117 135 9,000  Level Jacksonville Center
02:19PM 30.3558 -87.1603 91° East 118 136 9,000  Level Jacksonville Center
02:20PM 30.3550 -87.1217 91° East 118 136 9,000  Level Jacksonville Center
02:21PM 30.3583 -87.0858 84° East 119 137 9,000  Level Jacksonville Center
02:22PM 30.3556 -87.0447 94° East 121 139 9,000  Level Jacksonville Center
02:23PM 30.3586 -87.0089 84° East 119 137 9,000  Level Jacksonville Center
02:25PM 30.3548 -86.9379 94° East  Level FlightAware Approximate
02:32PM 30.3368 -86.6643 95° East  Level FlightAware Approximate
02:33PM 30.3340 -86.6253 95° East  Level FlightAware Approximate
02:34PM 30.3305 -86.5863 96° East  Level FlightAware Approximate
02:35PM 30.3267 -86.5474 96° East  Level FlightAware Approximate
02:36PM 30.3230 -86.5085 96° East  Level FlightAware Approximate
02:37PM 30.3193 -86.4696 96° East  Level FlightAware Approximate
02:38PM 30.3155 -86.4307 96° East  Level FlightAware Approximate
02:39PM 30.3118 -86.3918 96° East  Level FlightAware Approximate
02:40PM 30.3080 -86.3529 96° East  Level FlightAware Approximate
02:41PM 30.3043 -86.3140 96° East  Level FlightAware Approximate
02:42PM 30.3005 -86.2751 96° East  Level FlightAware Approximate
02:43PM 30.2967 -86.2362 96° East  Level FlightAware Approximate
02:44PM 30.2929 -86.1973 96° East  Level FlightAware Approximate
02:45PM 30.2890 -86.1585 96° East  Level FlightAware Approximate
02:46PM 30.2852 -86.1196 97° East  Level FlightAware Approximate
02:47PM 30.2813 -86.0807 97° East  Level FlightAware Approximate
02:48PM 30.2775 -86.0418 97° East  Level FlightAware Approximate
02:49PM 30.2736 -86.0030 97° East  Level FlightAware Approximate
02:50PM 30.2697 -85.9641 97° East  Level FlightAware Approximate
02:51PM 30.2667 -85.9252 90° East  Level FlightAware Approximate
02:52PM 30.2603 -85.8869 104° East  Level FlightAware Approximate
02:53PM 30.2522 -85.8490 104° East  Level FlightAware Approximate
02:54PM 30.2440 -85.8110 104° East  Level FlightAware Approximate
02:55PM 30.2359 -85.7730 104° East  Level FlightAware Approximate
02:56PM 30.2277 -85.7351 104° East  Level FlightAware Approximate
02:57PM 30.2196 -85.6972 104° East  Level FlightAware Approximate
02:58PM 30.2114 -85.6592 104° East  Level FlightAware Approximate
02:59PM 30.2032 -85.6213 104° East  Level FlightAware Approximate
03:00PM 30.1950 -85.5834 104° East  Level FlightAware Approximate
03:01PM 30.1868 -85.5454 104° East  Level FlightAware Approximate
03:02PM 30.1786 -85.5075 104° East  Level FlightAware Approximate
03:03PM 30.1703 -85.4696 104° East  Level FlightAware Approximate
03:04PM 30.1621 -85.4317 104° East  Level FlightAware Approximate
03:05PM 30.1538 -85.3938 104° East  Level FlightAware Approximate
03:06PM 30.1455 -85.3559 104° East  Level FlightAware Approximate
03:07PM 30.1373 -85.3180 104° East  Level FlightAware Approximate
03:08PM 30.1291 -85.2801 104° East  Level FlightAware Approximate
03:09PM 30.1210 -85.2422 104° East  Level FlightAware Approximate
03:10PM 30.1130 -85.2042 104° East  Level FlightAware Approximate
03:11PM 30.1049 -85.1663 104° East  Level FlightAware Approximate
03:12PM 30.0968 -85.1284 104° East  Level FlightAware Approximate
03:13PM 30.0887 -85.0905 104° East  Level FlightAware Approximate
03:14PM 30.0806 -85.0526 104° East  Level FlightAware Approximate
03:15PM 30.0725 -85.0147 104° East  Level FlightAware Approximate
03:16PM 30.0643 -84.9768 104° East  Level FlightAware Approximate
03:17PM 30.0562 -84.9389 104° East  Level FlightAware Approximate
03:18PM 30.0480 -84.9010 104° East  Level FlightAware Approximate
03:19PM 30.0399 -84.8631 104° East  Level FlightAware Approximate
03:20PM 30.0317 -84.8252 104° East  Level FlightAware Approximate
03:21PM 30.0235 -84.7874 104° East  Level FlightAware Approximate
03:22PM 30.0153 -84.7495 104° East  Level FlightAware Approximate
03:23PM 30.0071 -84.7117 104° East  Level FlightAware Approximate
03:24PM 29.9989 -84.6738 104° East  Level FlightAware Approximate
03:25PM 29.9906 -84.6360 104° East  Level FlightAware Approximate
03:26PM 29.9824 -84.5981 104° East  Level FlightAware Approximate
03:27PM 29.9741 -84.5603 104° East  Level FlightAware Approximate
03:28PM 29.9659 -84.5225 104° East  Level FlightAware Approximate
03:29PM 29.9576 -84.4847 104° East  Level FlightAware Approximate
03:30PM 29.9492 -84.4469 106° East  Level FlightAware Approximate
03:31PM 29.9399 -84.4094 106° East  Level FlightAware Approximate
03:32PM 29.9306 -84.3719 106° East  Level FlightAware Approximate
03:33PM 29.9213 -84.3344 106° East  Level FlightAware Approximate
03:34PM 29.9120 -84.2970 106° East  Level FlightAware Approximate
03:35PM 29.9027 -84.2595 106° East  Level FlightAware Approximate
03:35PM 29.9081 -84.2919 106° East 127 146 9,000  Level Jacksonville Center
03:36PM 29.8933 -84.2220 106° East  Level FlightAware Approximate
03:36PM 29.9000 -84.2583 105° East 132 152 9,000  Level Jacksonville Center
03:37PM 29.8839 -84.1846 106° East  Level FlightAware Approximate
03:37PM 29.8942 -84.2197 100° East 125 144 9,000  Level Jacksonville Center
03:38PM 29.8746 -84.1471 106° East  Level FlightAware Approximate
03:38PM 29.8864 -84.1814 103° East 120 138 9,000  Level Jacksonville Center
03:39PM 29.8652 -84.1097 106° East  Level FlightAware Approximate
03:39PM 29.8783 -84.1431 104° East 120 138 9,000  Level Jacksonville Center
03:40PM 29.8558 -84.0723 106° East  Level FlightAware Approximate
03:40PM 29.8661 -84.1044 110° East 120 138 9,000  Level Jacksonville Center
03:41PM 29.8622 -84.0661 97° East 120 138 9,000  Level Jacksonville Center
03:42PM 29.8522 -84.0300 108° East 120 138 9,000  Level Jacksonville Center
03:43PM 29.8442 -83.9942 105° East 120 138 9,000  Level Jacksonville Center
03:44PM 29.8361 -83.9581 104° East 125 144 9,000  Level Jacksonville Center
03:45PM 29.8281 -83.9197 104° East 125 144 9,000  Level Jacksonville Center
03:46PM 29.8139 -83.8861 116° Southeast 120 138 9,000  Level Jacksonville Center
03:47PM 29.7911 -83.8569 132° Southeast 115 132 9,000  Level Jacksonville Center
03:48PM 29.7703 -83.8281 130° Southeast 120 138 9,000  Level Jacksonville Center
03:49PM 29.7497 -83.7992 129° Southeast 120 138 9,000  Level Jacksonville Center
03:50PM 29.7269 -83.7703 132° Southeast 120 138 9,000  Level Jacksonville Center
03:51PM 29.7042 -83.7414 132° Southeast 120 138 9,000  Level Jacksonville Center
03:52PM 29.6836 -83.7125 129° Southeast 120 138 9,000  Level Jacksonville Center
03:53PM 29.6606 -83.6861 135° Southeast 120 138 9,000  Level Jacksonville Center
03:54PM 29.6400 -83.6547 127° Southeast 120 138 9,000  Level Jacksonville Center
03:55PM 29.6172 -83.6283 135° Southeast 120 138 9,000  Level Jacksonville Center
03:56PM 29.5964 -83.5994 130° Southeast 120 138 9,000  Level Jacksonville Center
03:57PM 29.5736 -83.5708 132° Southeast 120 138 9,000  Level Jacksonville Center
03:58PM 29.5508 -83.5419 132° Southeast 120 138 9,000  Level Jacksonville Center
03:59PM 29.5300 -83.5131 130° Southeast 120 138 9,000  Level Jacksonville Center
04:00PM 29.5072 -83.4844 132° Southeast 120 138 9,000  Level Jacksonville Center
04:01PM 29.4867 -83.4556 129° Southeast 120 138 9,000  Level Jacksonville Center
04:02PM 29.4636 -83.4269 133° Southeast 120 138 9,000  Level Jacksonville Center
04:03PM 29.4431 -83.3981 129° Southeast 120 138 9,000  Level Jacksonville Center
04:04PM 29.4200 -83.3717 135° Southeast 120 138 9,000  Level Jacksonville Center
04:05PM 29.3994 -83.3408 127° Southeast 120 138 9,000  Level Jacksonville Center
04:06PM 29.3764 -83.3119 132° Southeast 120 138 9,000  Level Jacksonville Center
04:07PM 29.3536 -83.2833 132° Southeast 120 138 9,000  Level Jacksonville Center
04:08PM 29.3308 -83.2547 132° Southeast 120 138 9,000  Level Jacksonville Center
04:09PM 29.3100 -83.2258 130° Southeast 120 138 9,000  Level Jacksonville Center
04:10PM 29.2869 -83.1950 131° Southeast 120 138 9,000  Level Jacksonville Center
04:11PM 29.2661 -83.1686 132° Southeast 120 138 9,000  Level Jacksonville Center
04:12PM 29.2433 -83.1400 132° Southeast 120 138 9,000  Level Jacksonville Center
04:13PM 29.2203 -83.1114 133° Southeast 120 138 9,000  Level Jacksonville Center
04:14PM 29.1994 -83.0828 130° Southeast 120 138 9,100  Climbing Jacksonville Center
04:15PM 29.1767 -83.0542 132° Southeast 120 138 9,000 -60 Descending Jacksonville Center
04:16PM 29.1558 -83.0281 132° Southeast 120 138 9,000  Level Jacksonville Center
04:17PM 29.1350 -82.9972 128° Southeast 120 138 9,000  Level Jacksonville Center
04:18PM 29.1119 -82.9711 135° Southeast 120 138 9,000  Level Jacksonville Center
04:19PM 29.0911 -82.9425 130° Southeast 120 138 9,000  Level Jacksonville Center
04:19PM 29.0786 -82.9283 135° Southeast 118 136 9,000  Level Jacksonville Center
04:20PM 29.0578 -82.8972 127° Southeast 123 142 9,000  Level Jacksonville Center
04:22PM 29.0286 -82.8642 135° Southeast 126 145 9,000  Level Jacksonville Center
04:22PM 29.0078 -82.8381 132° Southeast 117 135 9,000  Level Jacksonville Center
04:24PM 28.9867 -82.8119 133° Southeast 116 133 9,100  Climbing Jacksonville Center
04:25PM 28.9658 -82.7833 130° Southeast 118 136 9,000 -60 Descending Jacksonville Center
04:25PM 28.9469 -82.7597 132° Southeast 116 133 9,000  Level Jacksonville Center
04:27PM 28.9200 -82.7242 131° Southeast 131 151 9,000  Level Jacksonville Center
04:28PM 28.8969 -82.6958 133° Southeast 116 133 9,000  Level Jacksonville Center
04:29PM 28.8761 -82.6672 130° Southeast 115 132 9,000  Level Jacksonville Center
04:30PM 28.8550 -82.6389 130° Southeast 118 136 9,000  Level Jacksonville Center
04:31PM 28.8167 -82.5833 128° Southeast 117 135 9,000  Level Tampa TRACON
04:32PM 28.8000 -82.5667 139° Southeast 116 133 9,000  Level Tampa TRACON
04:33PM 28.7667 -82.5500 156° South 144 166 9,100  Climbing Tampa TRACON
04:34PM 28.7500 -82.5333 139° Southeast 126 145 9,100  Level Tampa TRACON
04:35PM 28.7167 -82.5000 139° Southeast 125 144 9,100  Level Tampa TRACON
04:36PM 28.6833 -82.4833 156° South 121 139 9,100 -240 Level Tampa TRACON
04:37PM 28.6500 -82.4667 156° South 124 143 8,700 -480 Descending Tampa TRACON
04:38PM 28.6167 -82.4333 139° Southeast 132 152 8,100 -660 Descending Tampa TRACON
04:39PM 28.5833 -82.4167 156° South 130 150 7,400 -600 Descending Tampa TRACON
04:40PM 28.5667 -82.4000 139° Southeast 127 146 7,000 -180 Descending Tampa TRACON
04:41PM 28.5333 -82.3833 156° South 127 146 7,100  Climbing Tampa TRACON
04:42PM 28.5000 -82.3667 156° South 124 143 7,100 -480 Level Tampa TRACON
04:43PM 28.4667 -82.3333 139° Southeast 131 151 6,100 -900 Descending Tampa TRACON
04:44PM 28.4333 -82.3167 156° South 131 151 5,300 -480 Descending Tampa TRACON
04:45PM 28.4000 -82.3000 156° South 121 139 5,100 -240 Descending Tampa TRACON
04:46PM 28.3833 -82.2667 120° Southeast 117 135 4,900 -300 Descending Tampa TRACON
04:47PM 28.3500 -82.2667 180° South 127 146 4,600 -360 Descending Tampa TRACON
04:48PM 28.3167 -82.2500 156° South 125 144 4,300 -480 Descending Tampa TRACON
04:49PM 28.2833 -82.2333 156° South 136 157 3,700 -600 Descending Tampa TRACON
04:50PM 28.2500 -82.2167 156° South 124 143 3,100 -420 Descending Tampa TRACON
04:51PM 28.2167 -82.2000 156° South 118 136 3,000 -60 Descending Tampa TRACON
04:52PM 28.2000 -82.1833 139° Southeast 117 135 3,000  Level Tampa TRACON
04:53PM 28.1667 -82.1667 156° South 117 135 3,000  Level Tampa TRACON
04:54PM 28.1333 -82.1667 180° South 117 135 3,000  Level Tampa TRACON
04:55PM 28.1000 -82.1500 156° South 118 136 3,000  Level Tampa TRACON
04:56PM 28.0667 -82.1500 180° South 115 132 3,000 -300 Level Tampa TRACON
04:57PM 28.0333 -82.1667 204° Southwest 128 147 2,500 -540 Descending Tampa TRACON
04:58PM 28.0000 -82.1833 204° Southwest 131 151 2,000 -300 Descending Tampa TRACON
04:59PM 27.9667 -82.2000 204° Southwest 112 129 1,900 -180 Descending Tampa TRACON
05:00PM 27.9500 -82.1667 120° Southeast 110 127 1,700 -120 Descending Tampa TRACON
05:01PM 27.9667 -82.1500 41° Northeast 100 115 1,700  Level Tampa TRACON
05:02PM 27.9833 -82.1333 41° Northeast 91 105 1,700 -240 Level Tampa TRACON
05:03PM 27.9833 -82.1000 90° East 86 99 1,300 -420 Descending Tampa TRACON
05:04PM 27.9833 -82.0833 90° East 84 97 900 -360 Descending Tampa TRACON
05:05PM 27.9833 -82.0500 90° East 86 99 600 -300 Descending Tampa TRACON
05:07PM 27.9833 -82.0167 76° East  Level FlightAware Approximate
05:14PM 27.9889 -82.0186 76° East  Level Estimated